Bluffs, Illinois
Current Conditions -  °F | °C
As of 12:55 PM on Tuesday 27 Jan 2015 (Local Time) from KPPQ Reporting Station
Broken Clouds Broken Clouds  
Wind Chill:   Ceiling: 2700
Heat Index:   Visibility: 10mi
Dew Point:   Wind: 8mph
Humidity: 63%   Direction: 330°NNW
Pressure: 30.16"   Gusts: NA
Location:  39.75°N, 90.54°W
Report Text: KPPQ 271855Z AUTO 33007KT 10SM BKN027 06/00 A3016 RMK AO2 T00611004
Loading
Personal Weather Stations






























Interactive Weather Map New forecast layout! Learn more

10-Day Weather Forecast

Advertisements
Track Severe Weather on mobile